Latest Weather Observations for Woomera

IDS60801

Issued at 10:11 am CDT Sunday 17 February 2019 (issued every 10 minutes, with the page automatically refreshed every 10 minutes)

About weather observations | Map of weather stations | Latest weather observations for SA | Other Formats
Station Details ID: 016001 Name: WOOMERA AERODROME Lat: -31.16 Lon: 136.81 Height: 166.6 m
Data from the previous 72 hours. | See also: Recent months at Woomera
Date/Time
CDT
Temp
°C
App
Temp
°C
Dew
Point
°C
Rel
Hum
%
Delta-T
°C
Wind Press
QNH
hPa
Press
MSL
hPa
Rain since
9am
mm
Dir  Spd
km/h
Gust
km/h
Spd
kts
Gust
kts
17/10:00am 31.2 26.0 3.3 17 14.3 ENE 20 26 11 14 1012.4 1011.4 0.0
17/09:30am 28.8 24.4 5.0 22 12.4 E 17 20 9 11 1012.4 1011.4 0.0
17/09:00am 26.8 22.1 5.1 25 11.2 E 19 20 10 11 1012.2 1011.2 0.0
17/08:30am 24.8 20.5 5.1 28 10.0 ESE 17 19 9 10 1012.2 1011.2 0.0
17/08:00am 23.6 19.6 5.0 30 9.4 ESE 15 17 8 9 1011.8 1010.8 0.0
17/07:30am 22.0 17.6 4.6 32 8.6 SE 17 17 9 9 1011.8 1010.8 0.0
17/07:00am 21.3 17.2 4.4 33 8.3 SE 15 15 8 8 1011.9 1010.9 0.0
17/06:30am 21.4 17.2 4.0 32 8.5 SE 15 17 8 9 1011.7 1010.7 0.0
17/06:00am 22.5 17.5 4.5 31 8.9 SE 20 20 11 11 1011.6 1010.6 0.0
17/05:30am 22.8 18.3 4.3 30 9.2 SE 17 19 9 10 1011.6 1010.6 0.0
17/05:00am 22.8 18.2 3.9 29 9.3 SSE 17 20 9 11 1011.7 1010.7 0.0
17/04:30am 22.2 17.7 2.3 27 9.4 SSE 15 15 8 8 1011.9 1010.9 0.0
17/04:00am 23.6 18.4 2.4 25 10.2 SE 19 20 10 11 1011.9 1010.9 0.0
17/03:30am 23.7 19.9 2.0 24 10.4 SE 11 13 6 7 1012.2 1011.2 0.0
17/03:00am 24.7 19.2 1.6 22 11.0 SE 20 24 11 13 1012.1 1011.1 0.0
17/02:30am 25.1 19.6 1.9 22 11.2 SE 20 24 11 13 1012.5 1011.5 0.0
17/02:00am 25.9 20.0 1.9 21 11.6 SE 22 28 12 15 1012.7 1011.7 0.0
17/01:30am 26.3 20.5 2.3 21 11.7 SE 22 28 12 15 1013.1 1012.1 0.0
17/01:00am 27.1 21.3 2.2 20 12.2 SE 22 30 12 16 1013.3 1012.3 0.0
17/12:30am 27.4 22.8 1.8 19 12.5 SE 15 20 8 11 1013.4 1012.4 0.0
17/12:00am 28.1 23.5 1.6 18 12.9 SE 15 19 8 10 1013.4 1012.4 0.0
 
Date/Time
CDT
Temp
°C
App
Temp
°C
Dew
Point
°C
Rel
Hum
%
Delta-T
°C
Wind Press
QNH
hPa
Press
MSL
hPa
Rain since
9am
mm
Dir  Spd
km/h
Gust
km/h
Spd
kts
Gust
kts
16/11:30pm 28.9 23.9 1.4 17 13.5 SE 17 22 9 12 1013.6 1012.6 0.0
16/11:00pm 28.8 23.9 -0.4 15 13.8 ESE 15 24 8 13 1013.5 1012.5 0.0
16/10:30pm 30.2 26.5 -0.2 14 14.6 SSE 9 11 5 6 1013.4 1012.4 0.0
16/10:00pm 30.3 26.6 -0.1 14 14.6 SSE 9 11 5 6 1013.3 1012.3 0.0
16/09:30pm 31.2 28.2 0.6 14 15.0 S 6 7 3 4 1013.1 1012.1 0.0
16/09:00pm 31.4 27.7 -0.3 13 15.3 SSW 9 9 5 5 1013.0 1012.0 0.0
16/08:30pm 31.9 27.8 0.1 13 15.5 S 11 13 6 7 1012.8 1011.8 0.0
16/08:00pm 33.8 29.4 0.5 12 16.6 SSW 13 20 7 11 1012.7 1011.7 0.0
16/07:30pm 34.7 29.9 -0.1 11 17.3 SSW 15 19 8 10 1012.5 1011.5 0.0
16/07:00pm 35.0 30.4 -1.1 10 17.6 SSW 13 24 7 13 1012.4 1011.4 0.0
16/06:30pm 35.3 30.7 -0.9 10 17.8 SE 13 24 7 13 1012.5 1011.5 0.0
16/06:00pm 35.2 30.2 -1.0 10 17.7 S 15 20 8 11 1012.7 1011.7 0.0
16/05:30pm 35.2 31.2 0.3 11 17.5 SW 11 20 6 11 1012.7 1011.7 0.0
16/05:00pm 35.5 30.4 0.6 11 17.6 SSW 17 30 9 16 1012.9 1011.9 0.0
16/04:30pm 35.7 30.0 -0.6 10 18.0 WSW 19 30 10 16 1013.3 1012.3 0.0
16/04:00pm 35.6 30.3 -0.7 10 17.9 SW 17 32 9 17 1013.4 1012.4 0.0
16/03:30pm 35.8 30.1 -0.5 10 18.0 SW 19 30 10 16 1013.8 1012.8 0.0
16/03:00pm 35.3 30.3 -0.9 10 17.8 S 15 26 8 14 1014.2 1013.2 0.0
16/02:30pm 34.5 30.0 -0.2 11 17.1 SW 13 20 7 11 1014.6 1013.7 0.0
16/02:00pm 34.0 30.0 0.6 12 16.7 SE 11 22 6 12 1015.1 1014.2 0.0
16/01:30pm 34.2 30.2 0.8 12 16.7 ENE 11 20 6 11 1015.6 1014.7 0.0
16/01:00pm 34.2 29.7 -0.4 11 17.0 S 13 22 7 12 1016.0 1015.1 0.0
16/12:30pm 33.8 29.6 1.6 13 16.3 SSE 13 20 7 11 1016.5 1015.6 0.0
16/12:00pm 32.5 28.9 0.6 13 15.7 SSE 9 17 5 9 1017.2 1016.3 0.0
16/11:30am 31.8 28.3 1.0 14 15.2 E 9 15 5 8 1017.5 1016.5 0.0
16/11:00am 31.5 27.5 0.8 14 15.1 E 11 15 6 8 1017.7 1016.7 0.0
16/10:30am 30.6 26.6 2.8 17 14.1 E 13 17 7 9 1017.9 1016.9 0.0
16/10:00am 29.4 25.4 4.8 21 12.8 E 15 19 8 10 1017.9 1016.9 0.0
16/09:30am 27.4 23.2 5.6 25 11.3 ESE 17 20 9 11 1017.8 1016.8 0.0
16/09:00am 25.9 22.0 7.0 30 10.0 ESE 17 20 9 11 1017.9 1016.9 0.0
16/08:30am 23.9 20.3 8.3 37 8.3 ESE 17 20 9 11 1017.9 1016.9 0.0
16/08:00am 22.9 19.1 9.0 41 7.5 SE 19 22 10 12 1017.6 1016.6 0.0
16/07:30am 21.5 17.6 8.7 44 6.8 SE 19 20 10 11 1017.4 1016.4 0.0
16/07:00am 21.0 17.1 8.6 45 6.6 SE 19 20 10 11 1016.9 1016.0 0.0
16/06:30am 21.5 17.6 8.7 44 6.8 SE 19 24 10 13 1016.8 1015.9 0.0
16/06:00am 20.7 17.2 7.0 41 7.0 SSE 15 17 8 9 1016.8 1015.9 0.0
16/05:30am 21.4 17.9 7.3 40 7.3 SE 15 19 8 10 1016.8 1015.9 0.0
16/05:00am 21.5 17.1 5.0 34 8.2 SSE 17 20 9 11 1016.9 1016.0 0.0
16/04:30am 21.9 17.7 4.0 31 8.7 S 15 19 8 10 1017.1 1016.2 0.0
16/04:00am 22.5 18.0 4.1 30 9.0 S 17 20 9 11 1017.2 1016.3 0.0
16/03:30am 23.1 18.6 4.1 29 9.4 SSE 17 20 9 11 1017.4 1016.4 0.0
16/03:00am 22.7 17.8 2.2 26 9.7 SSE 17 20 9 11 1017.4 1016.4 0.0
16/02:30am 23.9 18.4 2.1 24 10.4 SE 20 26 11 14 1017.2 1016.3 0.0
16/02:00am 24.0 19.8 1.6 23 10.6 ESE 13 17 7 9 1017.5 1016.5 0.0
16/01:30am 24.9 19.5 1.1 21 11.2 SE 19 20 10 11 1017.8 1016.8 0.0
16/01:00am 25.2 21.2 0.7 20 11.5 SE 11 13 6 7 1018.0 1017.0 0.0
16/12:30am 23.6 20.1 -1.3 19 11.1 SSE 7 9 4 5 1018.2 1017.2 0.0
16/12:00am 24.6 20.6 -2.0 17 11.8 SE 9 15 5 8 1018.3 1017.3 0.0
 
Date/Time
CDT
Temp
°C
App
Temp
°C
Dew
Point
°C
Rel
Hum
%
Delta-T
°C
Wind Press
QNH
hPa
Press
MSL
hPa
Rain since
9am
mm
Dir  Spd
km/h
Gust
km/h
Spd
kts
Gust
kts
15/11:30pm 27.4 24.1 0.2 17 12.9 E 7 7 4 4 1018.4 1017.4 0.0
15/11:00pm 27.5 24.2 0.3 17 12.9 ESE 7 9 4 5 1018.6 1017.6 0.0
15/10:30pm 26.8 24.4 -0.3 17 12.6 S 2 9 1 5 1018.7 1017.7 0.0
15/10:00pm 27.9 24.6 -0.2 16 13.3 SSW 7 9 4 5 1018.6 1017.6 0.0
15/09:30pm 28.0 24.7 -0.1 16 13.3 S 7 9 4 5 1018.2 1017.2 0.0
15/09:00pm 28.8 25.0 -0.4 15 13.8 S 9 11 5 6 1018.0 1017.0 0.0
15/08:30pm 29.6 25.8 -0.7 14 14.3 SSE 9 13 5 7 1017.6 1016.6 0.0
15/08:00pm 30.7 25.8 -0.8 13 15.0 S 15 19 8 10 1017.4 1016.4 0.0
15/07:30pm 31.1 26.6 -0.5 13 15.2 SSE 13 15 7 8 1017.2 1016.3 0.0
15/07:00pm 31.3 26.8 -0.4 13 15.3 S 13 24 7 13 1017.0 1016.1 0.0
15/06:30pm 32.0 27.3 -2.1 11 16.0 S 13 24 7 13 1017.1 1016.2 0.0
15/06:00pm 32.2 26.9 -3.2 10 16.4 SW 15 26 8 14 1017.2 1016.3 0.0
15/05:30pm 32.2 25.8 -2.0 11 16.1 SW 22 30 12 16 1017.4 1016.4 0.0
15/05:00pm 32.2 26.7 -2.0 11 16.2 SSW 17 28 9 15 1017.4 1016.4 0.0
15/04:30pm 31.9 26.4 -2.2 11 16.0 SW 17 26 9 14 1017.4 1016.4 0.0
15/04:00pm 32.5 27.8 -1.7 11 16.3 SW 13 26 7 14 1017.6 1016.6 0.0
15/03:30pm 32.3 27.2 -1.9 11 16.2 ESE 15 24 8 13 1018.1 1017.1 0.0
15/03:00pm 32.1 28.3 -0.9 12 15.8 SE 9 20 5 11 1018.8 1017.8 0.0
15/02:30pm 31.4 27.5 -1.4 12 15.5 WNW 9 15 5 8 1019.1 1018.1 0.0
15/02:00pm 32.3 28.7 0.4 13 15.7 W 9 26 5 14 1019.6 1018.6 0.0
15/01:30pm 30.7 27.4 0.2 14 14.8 E 7 15 4 8 1020.2 1019.3 0.0
15/01:00pm 29.8 24.5 -0.5 14 14.4 SE 17 22 9 12 1020.6 1019.7 0.0
15/12:30pm 29.6 26.9 0.2 15 14.1 ESE 4 13 2 7 1021.1 1020.2 0.0
15/12:00pm 29.0 23.9 0.7 16 13.6 E 17 28 9 15 1021.4 1020.5 0.0
15/11:30am 29.4 24.3 1.0 16 13.8 ENE 17 26 9 14 1021.7 1020.8 0.0
15/11:00am 28.5 23.1 1.1 17 13.3 ENE 19 28 10 15 1021.9 1021.0 0.0
15/10:30am 27.7 21.7 1.2 18 12.8 ENE 22 30 12 16 1022.0 1021.1 0.0
15/10:00am 26.8 20.6 2.0 20 12.1 ENE 24 33 13 18 1022.0 1021.1 0.0
15/09:30am 25.3 19.6 2.7 23 11.0 E 22 30 12 16 1021.9 1021.0 0.0
15/09:00am 23.4 18.1 4.9 30 9.3 E 22 28 12 15 1021.5 1020.6 0.0
15/08:30am 21.0 17.3 8.0 43 6.8 ESE 17 20 9 11 1021.1 1020.2 0.0
15/08:00am 19.7 16.2 8.7 49 5.8 ESE 17 20 9 11 1020.9 1020.0 0.0
15/07:30am 18.5 14.8 9.3 55 4.9 ESE 19 20 10 11 1020.6 1019.7 0.0
15/07:00am 18.1 14.7 9.2 56 4.7 ESE 17 20 9 11 1020.0 1019.1 0.0
15/06:30am 17.9 14.1 9.0 56 4.7 ESE 19 22 10 12 1019.6 1018.6 0.0
15/06:00am 18.1 14.1 8.9 55 4.8 SE 20 24 11 13 1019.5 1018.5 0.0
15/05:30am 18.4 15.5 9.5 56 4.7 SE 15 20 8 11 1019.4 1018.4 0.0
15/05:00am 18.2 14.6 8.5 53 5.0 SE 17 20 9 11 1019.4 1018.4 0.0
15/04:30am 19.0 15.4 8.4 50 5.5 SE 17 20 9 11 1019.4 1018.4 0.0
15/04:00am 19.0 15.3 8.1 49 5.7 SE 17 19 9 10 1019.4 1018.4 0.0
15/03:30am 20.0 16.1 8.7 48 6.0 SE 19 22 10 12 1019.4 1018.4 0.0
15/03:00am 20.3 15.9 7.3 43 6.7 SE 20 24 11 13 1019.4 1018.4 0.0
15/02:30am 20.7 16.1 6.6 40 7.2 SE 20 24 11 13 1019.6 1018.6 0.0
15/02:00am 21.0 16.3 5.0 35 7.9 SE 19 22 10 12 1019.6 1018.6 0.0
15/01:30am 21.1 16.3 2.4 29 8.8 ESE 17 20 9 11 1019.9 1019.0 0.0
15/01:00am 21.6 16.6 1.3 26 9.4 SSE 17 20 9 11 1020.0 1019.1 0.0
15/12:30am 21.6 18.0 0.8 25 9.5 SSW 9 11 5 6 1019.8 1018.9 0.0
15/12:00am 21.1 17.5 0.3 25 9.4 SW 9 9 5 5 1019.7 1018.7 0.0
 
Date/Time
CDT
Temp
°C
App
Temp
°C
Dew
Point
°C
Rel
Hum
%
Delta-T
°C
Wind Press
QNH
hPa
Press
MSL
hPa
Rain since
9am
mm
Dir  Spd
km/h
Gust
km/h
Spd
kts
Gust
kts
14/11:30pm 23.1 19.5 0.9 23 10.3 S 9 11 5 6 1019.5 1018.5 0.0
14/11:00pm 23.2 19.4 1.5 24 10.2 S 11 13 6 7 1019.6 1018.6 0.0
14/10:30pm 23.3 19.8 1.0 23 10.4 SSE 9 11 5 6 1019.3 1018.3 0.0
14/10:00pm 24.1 20.3 1.7 23 10.7 S 11 13 6 7 1019.3 1018.3 0.0
14/09:30pm 24.6 20.4 1.5 22 11.0 S 13 17 7 9 1019.2 1018.2 0.0
14/09:00pm 25.0 20.7 1.2 21 11.3 S 13 15 7 8 1019.0 1018.0 0.0
14/08:30pm 26.1 22.0 2.1 21 11.6 S 13 19 7 10 1018.6 1017.6 0.0
14/08:00pm 27.2 22.2 1.6 19 12.4 S 17 20 9 11 1018.3 1017.3 0.0
14/07:30pm 27.5 22.6 1.8 19 12.5 S 17 22 9 12 1018.1 1017.1 0.0
14/07:00pm 28.1 22.8 1.6 18 12.9 S 19 28 10 15 1018.0 1017.0 0.0
14/06:30pm 28.3 22.8 1.7 18 13.0 S 20 28 11 15 1017.8 1016.8 0.0
14/06:00pm 28.5 23.8 1.1 17 13.3 SSE 15 22 8 12 1017.9 1016.9 0.0
14/05:30pm 28.4 24.1 1.0 17 13.2 S 13 24 7 13 1017.7 1016.7 0.0
14/05:00pm 29.1 24.5 1.6 17 13.5 SSE 15 24 8 13 1017.7 1016.7 0.0
14/04:30pm 29.8 26.3 1.3 16 14.0 NNW 9 24 5 13 1017.9 1016.9 0.0
14/04:00pm 28.0 24.0 0.7 17 13.1 E 11 20 6 11 1018.2 1017.2 0.0
14/03:30pm 27.7 23.7 0.5 17 13.0 SE 11 20 6 11 1018.6 1017.6 0.0
14/03:00pm 27.2 22.9 0.8 18 12.6 ESE 13 20 7 11 1019.0 1018.0 0.0
14/02:30pm 27.2 23.9 2.3 20 12.2 SSE 9 17 5 9 1019.4 1018.4 0.0
14/02:00pm 26.3 22.2 2.3 21 11.7 N 13 17 7 9 1019.6 1018.6 0.0
14/01:30pm 25.7 22.8 2.4 22 11.3 N 7 9 4 5 1019.9 1019.0 0.0
14/01:00pm 25.5 21.4 2.2 22 11.3 NE 13 24 7 13 1020.3 1019.4 0.0
14/12:30pm 24.3 21.1 3.0 25 10.4 W 9 20 5 11 1020.8 1019.9 0.0
14/12:00pm 24.0 20.0 2.8 25 10.2 NE 13 22 7 12 1021.1 1020.2 0.0
14/11:30am 23.7 18.8 4.1 28 9.7 E 19 26 10 14 1021.3 1020.4 0.0
14/11:00am 22.6 17.6 4.6 31 8.9 E 20 30 11 16 1021.2 1020.3 0.0
14/10:30am 21.7 16.3 4.7 33 8.4 E 22 32 12 17 1021.2 1020.3 0.0

Other Formats:

Comma delimited format used in spreadsheet applications
http://www.bom.gov.au/fwo/IDS60801/IDS60801.94659.axf

JavaScript Object Notation format (JSON) in row-major order
http://www.bom.gov.au/fwo/IDS60801/IDS60801.94659.json